Time;durP1;ratioP1;P1;durP2;ratioP2;P2;SDS_P1;SDS_P2;PMS_P1;PMS_P2;Temp;Humidity;BMP_temperature;BMP_pressure;BME280_temperature;BME280_humidity;BME280_pressure;Samples;Min_cycle;Max_cycle;Signal;HPM_P1;HPM_P2
2024/03/23 00:01:27;;;;;;;15.97;4.47;;;7.90;99.90;;;;;;4960018;28;20858;-67
2024/03/23 00:03:57;;;;;;;13.03;3.93;;;7.90;99.90;;;;;;4959478;28;20470;-67
2024/03/23 00:06:26;;;;;;;8.77;3.40;;;8.00;99.90;;;;;;4962181;28;21015;-67
2024/03/23 00:08:56;;;;;;;14.07;3.47;;;7.90;99.90;;;;;;4964579;28;20466;-67
2024/03/23 00:11:24;;;;;;;14.17;3.50;;;7.90;99.90;;;;;;4960738;28;21069;-68
2024/03/23 00:13:54;;;;;;;15.17;3.50;;;7.90;99.90;;;;;;4982053;28;20489;-67
2024/03/23 00:16:25;;;;;;;12.80;4.30;;;7.90;99.90;;;;;;4966068;28;20506;-66
2024/03/23 00:18:55;;;;;;;16.70;5.00;;;7.90;99.90;;;;;;4981712;28;20564;-66
2024/03/23 00:21:24;;;;;;;17.90;5.30;;;7.90;99.90;;;;;;4968158;28;20470;-67
2024/03/23 00:23:54;;;;;;;13.60;3.70;;;7.90;99.90;;;;;;4969149;28;20481;-67
2024/03/23 00:26:22;;;;;;;16.07;3.70;;;7.90;99.90;;;;;;4965229;28;20505;-67
2024/03/23 00:28:52;;;;;;;16.80;4.90;;;7.90;99.90;;;;;;4967773;28;20858;-67
2024/03/23 00:31:21;;;;;;;13.00;3.40;;;7.80;99.90;;;;;;4968231;28;20477;-68
2024/03/23 00:33:51;;;;;;;12.20;4.03;;;7.90;99.90;;;;;;4965570;28;20481;-68
2024/03/23 00:36:20;;;;;;;12.63;4.33;;;7.80;99.90;;;;;;4968620;28;20474;-68
2024/03/23 00:38:49;;;;;;;16.70;3.93;;;7.80;99.90;;;;;;4962748;28;20494;-68
2024/03/23 00:41:18;;;;;;;14.77;4.77;;;7.80;99.90;;;;;;4965289;28;20481;-69
2024/03/23 00:43:48;;;;;;;17.97;5.10;;;7.80;99.90;;;;;;4967659;28;20485;-68
2024/03/23 00:46:17;;;;;;;8.50;3.57;;;7.80;99.90;;;;;;4964455;28;20477;-68
2024/03/23 00:48:47;;;;;;;16.80;4.50;;;7.80;99.90;;;;;;4969180;28;20841;-68
2024/03/23 00:51:15;;;;;;;13.03;3.50;;;7.80;99.90;;;;;;4978767;28;20950;-68
2024/03/23 00:53:44;;;;;;;13.50;3.80;;;7.80;99.90;;;;;;4966863;28;20474;-68
2024/03/23 00:56:10;;;;;;;9.93;3.33;;;7.80;99.90;;;;;;4965448;28;20477;-69
2024/03/23 00:58:37;;;;;;;14.20;4.10;;;7.70;99.90;;;;;;4963478;28;20478;-69
2024/03/23 01:01:03;;;;;;;12.67;3.77;;;7.70;99.90;;;;;;4987859;28;20462;-68
2024/03/23 01:03:30;;;;;;;12.87;3.90;;;7.70;99.90;;;;;;4968093;28;20498;-69
2024/03/23 01:05:59;;;;;;;10.90;4.47;;;7.70;99.90;;;;;;4971472;28;21168;-68
2024/03/23 01:08:26;;;;;;;13.80;3.90;;;7.70;99.90;;;;;;4976131;28;20638;-68
2024/03/23 01:10:58;;;;;;;20.33;4.30;;;7.60;99.90;;;;;;4977845;28;21471;-69
2024/03/23 01:13:25;;;;;;;11.17;3.90;;;7.60;99.90;;;;;;4985360;28;20489;-68
2024/03/23 01:15:53;;;;;;;11.07;4.20;;;7.60;99.90;;;;;;4986793;28;20904;-68
2024/03/23 01:18:20;;;;;;;15.27;4.10;;;7.60;99.90;;;;;;4986707;28;20540;-68
2024/03/23 01:20:47;;;;;;;15.13;6.53;;;7.60;99.90;;;;;;4972894;28;21138;-68
2024/03/23 01:23:13;;;;;;;15.23;3.47;;;7.60;99.90;;;;;;4963318;28;20497;-68
2024/03/23 01:25:41;;;;;;;11.00;3.70;;;7.60;99.90;;;;;;4963731;28;20486;-68
2024/03/23 01:28:09;;;;;;;14.93;4.20;;;7.50;99.90;;;;;;4965431;28;20477;-68
2024/03/23 01:30:36;;;;;;;14.33;3.83;;;7.60;99.90;;;;;;4974617;28;20481;-68
2024/03/23 01:33:02;;;;;;;11.87;4.00;;;7.50;99.90;;;;;;4985932;28;20497;-68
2024/03/23 01:35:30;;;;;;;16.23;4.30;;;7.50;99.90;;;;;;4984089;28;20532;-68
2024/03/23 01:37:56;;;;;;;16.37;4.10;;;7.50;99.90;;;;;;4985930;28;20473;-69
2024/03/23 01:40:23;;;;;;;14.43;4.30;;;7.50;99.90;;;;;;4975613;28;20498;-68
2024/03/23 01:42:55;;;;;;;17.87;4.60;;;7.50;99.90;;;;;;4962351;28;20865;-69
2024/03/23 01:45:24;;;;;;;16.77;4.80;;;7.50;99.90;;;;;;4964429;28;21021;-68
2024/03/23 01:47:50;;;;;;;11.07;3.87;;;7.50;99.90;;;;;;4965194;28;20492;-68
2024/03/23 01:50:18;;;;;;;14.53;4.00;;;7.50;99.90;;;;;;4971663;28;20504;-68
2024/03/23 01:52:44;;;;;;;13.03;3.97;;;7.50;99.90;;;;;;4985733;28;20501;-69
2024/03/23 01:55:12;;;;;;;11.20;3.90;;;7.50;99.90;;;;;;4985068;28;20481;-68
2024/03/23 01:57:38;;;;;;;14.23;5.63;;;7.40;99.90;;;;;;4983022;28;20473;-69
2024/03/23 02:00:06;;;;;;;13.87;3.90;;;7.40;99.90;;;;;;4981750;28;20488;-68
2024/03/23 02:02:34;;;;;;;12.57;4.17;;;7.40;99.90;;;;;;4983387;28;20481;-68
2024/03/23 02:05:01;;;;;;;9.63;4.20;;;7.40;99.90;;;;;;4985105;28;20484;-69
2024/03/23 02:07:27;;;;;;;12.10;3.57;;;7.40;99.90;;;;;;4985967;28;20544;-69
2024/03/23 02:09:55;;;;;;;12.43;3.63;;;7.40;99.90;;;;;;4978200;28;20485;-67
2024/03/23 02:12:21;;;;;;;14.60;3.70;;;7.30;99.90;;;;;;4962871;28;21031;-69
2024/03/23 02:14:48;;;;;;;11.80;3.13;;;7.40;99.90;;;;;;4960279;28;20463;-68
2024/03/23 02:17:14;;;;;;;13.37;3.67;;;7.30;99.90;;;;;;4964811;28;20990;-68
2024/03/23 02:19:43;;;;;;;10.60;3.27;;;7.40;99.90;;;;;;4966937;28;20473;-69
2024/03/23 02:22:10;;;;;;;8.83;4.30;;;7.30;99.90;;;;;;4982044;28;20504;-69
2024/03/23 02:24:38;;;;;;;13.13;4.10;;;7.30;99.90;;;;;;4984717;28;20606;-68
2024/03/23 02:27:05;;;;;;;12.83;5.43;;;7.30;99.90;;;;;;4985769;28;20473;-68
2024/03/23 02:29:32;;;;;;;13.23;3.83;;;7.30;99.90;;;;;;4981238;28;20516;-68
2024/03/23 02:31:58;;;;;;;15.17;5.00;;;7.30;99.90;;;;;;4962152;28;20490;-69
2024/03/23 02:34:25;;;;;;;12.73;4.10;;;7.20;99.90;;;;;;4961584;28;20466;-69
2024/03/23 02:36:51;;;;;;;9.40;4.50;;;7.20;99.90;;;;;;4966256;28;20474;-69
2024/03/23 02:39:19;;;;;;;12.13;4.20;;;7.20;99.90;;;;;;4966197;28;20563;-69
2024/03/23 02:41:47;;;;;;;10.90;3.90;;;7.20;99.90;;;;;;4983381;28;20547;-69
2024/03/23 02:44:14;;;;;;;9.30;3.63;;;7.20;99.90;;;;;;4985490;28;20494;-68
2024/03/23 02:46:40;;;;;;;10.53;3.87;;;7.20;99.90;;;;;;4981820;28;20477;-68
2024/03/23 02:49:08;;;;;;;10.00;5.13;;;7.20;99.90;;;;;;4984741;28;20504;-68
2024/03/23 02:51:34;;;;;;;15.90;4.23;;;7.10;99.90;;;;;;4963676;28;21046;-69
2024/03/23 02:54:01;;;;;;;16.60;5.00;;;7.10;99.90;;;;;;4965319;28;21067;-69
2024/03/23 02:56:27;;;;;;;8.63;3.70;;;7.10;99.90;;;;;;4965513;28;20544;-68
2024/03/23 02:58:55;;;;;;;15.07;5.07;;;7.10;99.90;;;;;;4963850;28;20845;-68
2024/03/23 03:01:22;;;;;;;12.10;4.17;;;7.10;99.90;;;;;;4977688;28;20493;-68
2024/03/23 03:03:49;;;;;;;14.30;4.10;;;7.10;99.90;;;;;;4982104;28;20476;-68
2024/03/23 03:06:23;;;;;;;10.83;3.83;;;7.10;99.90;;;;;;4984309;28;20477;-68
2024/03/23 03:08:50;;;;;;;10.30;3.70;;;7.10;99.90;;;;;;4980478;28;20473;-68
2024/03/23 03:11:16;;;;;;;13.70;4.20;;;7.10;99.90;;;;;;4964921;28;21026;-68
2024/03/23 03:13:43;;;;;;;10.10;3.57;;;7.00;99.90;;;;;;4963223;28;20474;-68
2024/03/23 03:16:11;;;;;;;16.17;4.63;;;7.10;99.90;;;;;;4964987;28;20477;-68
2024/03/23 03:18:38;;;;;;;9.90;3.83;;;7.00;99.90;;;;;;4964716;28;20470;-68
2024/03/23 03:21:05;;;;;;;14.77;4.40;;;7.10;99.90;;;;;;4974519;28;20494;-69
2024/03/23 03:23:32;;;;;;;15.70;5.07;;;7.00;99.90;;;;;;4983930;28;20485;-68
2024/03/23 03:25:58;;;;;;;8.30;3.60;;;7.00;99.90;;;;;;4985468;28;20465;-68
2024/03/23 03:28:30;;;;;;;12.57;4.47;;;7.00;99.90;;;;;;4982421;28;20548;-68
2024/03/23 03:30:56;;;;;;;8.83;3.70;;;7.00;99.90;;;;;;4978989;28;20519;-68
2024/03/23 03:33:25;;;;;;;10.07;3.80;;;7.00;99.90;;;;;;4981724;28;20863;-69
2024/03/23 03:35:51;;;;;;;7.80;3.97;;;7.00;99.90;;;;;;4983756;28;20523;-69
2024/03/23 03:38:19;;;;;;;10.17;3.53;;;7.00;99.90;;;;;;4980285;28;20465;-69
2024/03/23 03:40:45;;;;;;;11.13;3.97;;;7.00;99.90;;;;;;4982190;28;20579;-68
2024/03/23 03:43:12;;;;;;;11.93;3.97;;;7.00;99.90;;;;;;4984961;28;20488;-68
2024/03/23 03:45:38;;;;;;;11.17;4.77;;;7.00;99.90;;;;;;4984512;28;20531;-68
2024/03/23 03:48:06;;;;;;;16.70;4.13;;;7.00;99.90;;;;;;4983173;28;20477;-69
2024/03/23 03:50:34;;;;;;;10.80;3.10;;;6.90;99.90;;;;;;4987447;28;20500;-69
2024/03/23 03:53:01;;;;;;;14.50;4.53;;;6.90;99.90;;;;;;4986409;28;20510;-69
2024/03/23 03:55:27;;;;;;;10.07;3.23;;;7.00;99.90;;;;;;4987651;28;20524;-68
2024/03/23 03:57:54;;;;;;;8.97;3.83;;;6.90;99.90;;;;;;4985530;28;20469;-68
2024/03/23 04:00:20;;;;;;;12.20;3.83;;;6.90;99.90;;;;;;4979915;28;20624;-68
2024/03/23 04:02:47;;;;;;;13.97;4.00;;;6.90;99.90;;;;;;4967453;28;20513;-68
2024/03/23 04:05:14;;;;;;;13.57;4.80;;;6.90;99.90;;;;;;4965813;28;20469;-67
2024/03/23 04:07:43;;;;;;;18.77;4.70;;;6.90;99.90;;;;;;4966096;28;20501;-68
2024/03/23 04:10:10;;;;;;;13.27;4.23;;;6.90;99.90;;;;;;4973744;28;20488;-68
2024/03/23 04:12:37;;;;;;;11.97;4.27;;;6.80;99.90;;;;;;4985663;28;20496;-68
2024/03/23 04:15:04;;;;;;;15.20;4.60;;;6.80;99.90;;;;;;4982703;28;20473;-68
2024/03/23 04:17:33;;;;;;;11.83;4.20;;;6.80;99.90;;;;;;4986006;28;20976;-68
2024/03/23 04:20:00;;;;;;;7.70;3.50;;;6.80;99.90;;;;;;4981488;28;20485;-68
2024/03/23 04:22:28;;;;;;;10.27;3.63;;;6.90;99.90;;;;;;4986938;28;20489;-68
2024/03/23 04:24:56;;;;;;;8.50;3.57;;;6.80;99.90;;;;;;4982617;28;20989;-66
2024/03/23 04:27:24;;;;;;;10.83;3.57;;;6.80;99.90;;;;;;4983053;28;20572;-67
2024/03/23 04:29:50;;;;;;;10.73;3.90;;;6.80;99.90;;;;;;5003150;28;20523;-67
2024/03/23 04:32:18;;;;;;;11.27;3.47;;;6.80;99.90;;;;;;4984396;28;20485;-67
2024/03/23 04:34:44;;;;;;;7.53;3.33;;;6.80;99.90;;;;;;4985659;28;20473;-67
2024/03/23 04:37:12;;;;;;;13.30;4.13;;;6.80;99.90;;;;;;4987583;28;20589;-67
2024/03/23 04:39:39;;;;;;;13.60;4.10;;;6.80;99.90;;;;;;4981827;28;20563;-67
2024/03/23 04:42:08;;;;;;;9.40;3.40;;;6.70;99.90;;;;;;4964782;28;20552;-67
2024/03/23 04:44:35;;;;;;;9.43;4.23;;;6.70;99.90;;;;;;4968448;28;21122;-67
2024/03/23 04:47:02;;;;;;;11.30;3.80;;;6.80;99.90;;;;;;4966642;28;20897;-67
2024/03/23 04:49:29;;;;;;;14.33;4.40;;;6.80;99.90;;;;;;4966606;28;21140;-67
2024/03/23 04:51:56;;;;;;;12.03;4.20;;;6.70;99.90;;;;;;4984868;28;20850;-67
2024/03/23 04:54:23;;;;;;;10.97;4.60;;;6.70;99.90;;;;;;4988431;28;20465;-66
2024/03/23 04:56:50;;;;;;;12.23;3.63;;;6.70;99.90;;;;;;4982487;28;20465;-67
2024/03/23 04:59:18;;;;;;;12.30;4.40;;;6.70;99.90;;;;;;4978948;28;20465;-67
2024/03/23 05:01:45;;;;;;;12.57;3.90;;;6.70;99.90;;;;;;4980452;28;20499;-67
2024/03/23 05:04:11;;;;;;;11.37;3.80;;;6.70;99.90;;;;;;4983757;28;20473;-67
2024/03/23 05:06:38;;;;;;;12.20;3.43;;;6.70;99.90;;;;;;4983268;28;21029;-67
2024/03/23 05:09:05;;;;;;;12.37;3.80;;;6.70;99.90;;;;;;4986912;28;20481;-67
2024/03/23 05:11:33;;;;;;;11.93;3.50;;;6.70;99.90;;;;;;4986340;28;20990;-67
2024/03/23 05:13:59;;;;;;;9.40;3.20;;;6.70;99.90;;;;;;4983687;28;20986;-67
2024/03/23 05:16:28;;;;;;;11.23;3.40;;;6.70;99.90;;;;;;4985018;28;20548;-67
2024/03/23 05:18:54;;;;;;;9.00;3.57;;;6.70;99.90;;;;;;4986766;28;20998;-67
2024/03/23 05:21:21;;;;;;;8.33;3.30;;;6.70;99.90;;;;;;4969079;28;20497;-68
2024/03/23 05:23:47;;;;;;;12.13;4.30;;;6.70;99.90;;;;;;4965205;28;21046;-67
2024/03/23 05:26:14;;;;;;;12.50;3.73;;;6.60;99.90;;;;;;4962101;28;20548;-67
2024/03/23 05:28:41;;;;;;;9.63;3.50;;;6.60;99.90;;;;;;4968052;28;20471;-68
2024/03/23 05:31:08;;;;;;;14.20;3.73;;;6.60;99.90;;;;;;4977535;28;20473;-67
2024/03/23 05:33:37;;;;;;;9.20;3.57;;;6.60;99.90;;;;;;4984103;28;21154;-67
2024/03/23 05:36:05;;;;;;;10.40;3.97;;;6.60;99.90;;;;;;4984760;28;20982;-67
2024/03/23 05:38:31;;;;;;;11.53;4.30;;;6.60;99.90;;;;;;4976870;28;20481;-67
2024/03/23 05:40:59;;;;;;;9.10;3.70;;;6.60;99.90;;;;;;4981806;28;20477;-67
2024/03/23 05:43:26;;;;;;;10.83;3.40;;;6.60;99.90;;;;;;4983237;28;20490;-67
2024/03/23 05:45:55;;;;;;;11.37;3.67;;;6.60;99.90;;;;;;4980691;28;20871;-67
2024/03/23 05:48:21;;;;;;;11.60;3.77;;;6.60;99.90;;;;;;4983057;28;20481;-68
2024/03/23 05:50:49;;;;;;;13.27;5.00;;;6.60;99.90;;;;;;4973258;28;20482;-67
2024/03/23 05:53:16;;;;;;;12.00;2.97;;;6.60;99.90;;;;;;4964385;28;20555;-68
2024/03/23 05:55:43;;;;;;;10.30;3.70;;;6.60;99.90;;;;;;4961223;28;20477;-68
2024/03/23 05:58:10;;;;;;;9.43;3.30;;;6.60;99.90;;;;;;4965661;28;20980;-67
2024/03/23 06:00:37;;;;;;;9.77;3.40;;;6.60;99.90;;;;;;4975912;28;20477;-68
2024/03/23 06:03:03;;;;;;;12.20;3.90;;;6.60;99.90;;;;;;4984096;28;20497;-67
2024/03/23 06:05:30;;;;;;;15.43;3.70;;;6.60;99.90;;;;;;4980478;28;20473;-68
2024/03/23 06:07:58;;;;;;;10.03;3.77;;;6.60;99.90;;;;;;4986056;28;20474;-67
2024/03/23 06:10:25;;;;;;;11.87;4.30;;;6.60;99.90;;;;;;5001298;28;20536;-67
2024/03/23 06:12:52;;;;;;;13.30;4.67;;;6.60;99.90;;;;;;4980174;28;20508;-68
2024/03/23 06:15:19;;;;;;;10.37;3.80;;;6.60;99.90;;;;;;4984318;28;20832;-67
2024/03/23 06:17:45;;;;;;;15.00;4.53;;;6.60;99.90;;;;;;4985369;28;20469;-67
2024/03/23 06:20:13;;;;;;;9.93;3.60;;;6.60;99.90;;;;;;4980325;28;20513;-67
2024/03/23 06:22:40;;;;;;;10.57;3.77;;;6.60;99.90;;;;;;4985419;28;20489;-67
2024/03/23 06:25:09;;;;;;;9.97;3.60;;;6.60;99.90;;;;;;4985399;28;20473;-68
2024/03/23 06:27:35;;;;;;;13.53;3.70;;;6.70;99.90;;;;;;4984260;28;20478;-67
2024/03/23 06:30:02;;;;;;;6.67;3.67;;;6.70;99.90;;;;;;4976843;28;20531;-68
2024/03/23 06:32:28;;;;;;;9.07;3.37;;;6.70;99.90;;;;;;4966649;28;20548;-67
2024/03/23 06:34:56;;;;;;;10.57;3.33;;;6.70;99.90;;;;;;4961799;28;20462;-67
2024/03/23 06:37:22;;;;;;;12.53;4.43;;;6.70;99.90;;;;;;4962663;28;20470;-67
2024/03/23 06:39:49;;;;;;;10.00;3.30;;;6.70;99.90;;;;;;4955778;28;20489;-68
2024/03/23 06:42:16;;;;;;;8.50;3.70;;;6.70;99.90;;;;;;4963278;28;20501;-67
2024/03/23 06:44:44;;;;;;;9.70;3.57;;;6.70;99.90;;;;;;4963100;28;20477;-67
2024/03/23 06:47:10;;;;;;;11.17;4.20;;;6.80;99.90;;;;;;4965066;28;20505;-67
2024/03/23 06:49:37;;;;;;;10.90;4.53;;;6.80;99.90;;;;;;4969122;28;20500;-67
2024/03/23 06:52:04;;;;;;;11.13;3.30;;;6.80;99.90;;;;;;4979742;28;20484;-67
2024/03/23 06:54:31;;;;;;;10.43;4.13;;;6.80;99.90;;;;;;4983112;28;20484;-68
2024/03/23 06:56:57;;;;;;;9.83;4.03;;;6.90;99.90;;;;;;4980538;28;20473;-68
2024/03/23 06:59:26;;;;;;;11.57;3.70;;;6.80;99.90;;;;;;4980308;28;20472;-68
2024/03/23 07:01:52;;;;;;;14.60;4.07;;;6.80;99.90;;;;;;4956126;28;20502;-68
2024/03/23 07:04:19;;;;;;;14.37;4.27;;;6.80;99.90;;;;;;4963692;28;20477;-68
2024/03/23 07:06:45;;;;;;;13.60;4.03;;;6.80;99.90;;;;;;4949351;28;20486;-68
2024/03/23 07:09:13;;;;;;;12.43;4.40;;;6.80;99.90;;;;;;4955074;28;20860;-66
2024/03/23 07:11:39;;;;;;;9.93;3.63;;;6.80;99.90;;;;;;4968181;28;20545;-65
2024/03/23 07:14:07;;;;;;;13.00;5.13;;;6.80;99.90;;;;;;4970762;28;20469;-66
2024/03/23 07:16:34;;;;;;;9.20;3.40;;;6.80;99.90;;;;;;4967730;28;21173;-65
2024/03/23 07:19:01;;;;;;;14.50;3.80;;;6.80;99.90;;;;;;4975141;28;20978;-65
2024/03/23 07:21:27;;;;;;;8.73;4.53;;;6.80;99.90;;;;;;4975070;28;21052;-66
2024/03/23 07:23:54;;;;;;;10.17;4.03;;;6.80;99.90;;;;;;4976369;28;20850;-65
2024/03/23 07:26:20;;;;;;;8.20;3.33;;;6.80;99.90;;;;;;4973561;28;21207;-65
2024/03/23 07:28:49;;;;;;;12.37;3.60;;;6.80;99.90;;;;;;4973249;28;20476;-66
2024/03/23 07:31:15;;;;;;;14.30;4.03;;;6.90;99.90;;;;;;4973222;28;20568;-67
2024/03/23 07:33:47;;;;;;;13.90;4.77;;;6.90;99.90;;;;;;4979534;28;20571;-66
2024/03/23 07:36:14;;;;;;;11.77;3.67;;;7.00;99.90;;;;;;4972398;28;21379;-65
2024/03/23 07:38:42;;;;;;;11.87;4.27;;;7.00;99.90;;;;;;4976400;28;20476;-66
2024/03/23 07:41:10;;;;;;;13.57;4.87;;;7.00;99.90;;;;;;4974325;28;20492;-66
2024/03/23 07:43:39;;;;;;;10.77;3.50;;;7.10;99.90;;;;;;4976647;28;21045;-66
2024/03/23 07:46:05;;;;;;;9.00;2.90;;;7.10;99.90;;;;;;4977071;28;20842;-65
2024/03/23 07:48:32;;;;;;;8.93;3.77;;;7.10;99.90;;;;;;4977812;28;20480;-65
2024/03/23 07:51:01;;;;;;;10.90;3.43;;;7.10;99.90;;;;;;4977987;28;20481;-66
2024/03/23 07:53:29;;;;;;;12.27;3.80;;;7.10;99.90;;;;;;4992767;28;20998;-67
2024/03/23 07:55:56;;;;;;;9.97;4.40;;;7.20;99.90;;;;;;4978195;28;20477;-64
2024/03/23 07:58:23;;;;;;;8.97;3.20;;;7.20;99.90;;;;;;4978761;28;20476;-67
2024/03/23 08:00:50;;;;;;;6.70;3.47;;;7.20;99.90;;;;;;4977671;28;20510;-66
2024/03/23 08:03:17;;;;;;;14.57;3.47;;;7.30;99.90;;;;;;4974155;28;20489;-66
2024/03/23 08:05:43;;;;;;;9.50;4.30;;;7.30;99.90;;;;;;4987261;28;21183;-66
2024/03/23 08:08:11;;;;;;;10.73;4.20;;;7.40;99.90;;;;;;4970541;28;20544;-66
2024/03/23 08:10:46;;;;;;;16.83;3.93;;;7.50;99.90;;;;;;4959183;28;20478;-66
2024/03/23 08:13:13;;;;;;;10.33;3.60;;;7.50;99.90;;;;;;4961516;28;20922;-66
2024/03/23 08:15:39;;;;;;;13.90;4.13;;;7.50;99.90;;;;;;4963237;28;21046;-66
2024/03/23 08:18:06;;;;;;;11.00;4.17;;;7.60;99.90;;;;;;4961999;28;20466;-66
2024/03/23 08:20:32;;;;;;;12.13;3.97;;;7.60;99.90;;;;;;4957656;28;20494;-66
2024/03/23 08:23:00;;;;;;;8.40;3.30;;;7.70;99.90;;;;;;4962348;28;20498;-66
2024/03/23 08:25:27;;;;;;;9.40;5.20;;;7.80;99.90;;;;;;4963673;28;20499;-66
2024/03/23 08:27:54;;;;;;;9.43;3.90;;;7.90;99.90;;;;;;4965466;28;20470;-66
2024/03/23 08:30:20;;;;;;;10.27;3.40;;;7.90;99.90;;;;;;4964456;28;20528;-66
2024/03/23 08:32:47;;;;;;;7.80;3.43;;;8.00;99.90;;;;;;4963656;28;20489;-66
2024/03/23 08:35:13;;;;;;;12.40;3.43;;;8.10;99.90;;;;;;4968006;28;20477;-66
2024/03/23 08:37:40;;;;;;;8.97;3.53;;;8.10;99.90;;;;;;4969065;28;20471;-66
2024/03/23 08:40:08;;;;;;;9.97;3.90;;;8.10;99.90;;;;;;4975556;28;21044;-66
2024/03/23 08:42:36;;;;;;;9.80;3.53;;;8.10;99.90;;;;;;4985249;28;21223;-66
2024/03/23 08:45:03;;;;;;;11.00;3.50;;;8.20;99.90;;;;;;4983364;28;20477;-66
2024/03/23 08:47:30;;;;;;;8.73;3.30;;;8.30;99.90;;;;;;4983958;28;20466;-66
2024/03/23 08:49:57;;;;;;;7.70;3.47;;;8.40;99.90;;;;;;4979764;28;20489;-66
2024/03/23 08:52:27;;;;;;;9.07;3.33;;;8.40;99.90;;;;;;4965274;28;21136;-66
2024/03/23 08:54:53;;;;;;;8.53;3.03;;;8.40;99.90;;;;;;4964795;28;20968;-66
2024/03/23 08:57:20;;;;;;;11.40;3.47;;;8.40;99.90;;;;;;4963009;28;20481;-66
2024/03/23 08:59:47;;;;;;;7.00;3.10;;;8.50;99.90;;;;;;4968154;28;20473;-66
2024/03/23 09:02:14;;;;;;;8.43;3.37;;;8.50;99.90;;;;;;4965146;28;21071;-65
2024/03/23 09:04:40;;;;;;;9.13;3.00;;;8.60;99.90;;;;;;4967736;28;20474;-64
2024/03/23 09:07:08;;;;;;;9.33;3.70;;;8.70;99.90;;;;;;4965788;28;20855;-65
2024/03/23 09:09:34;;;;;;;10.07;3.50;;;8.80;99.90;;;;;;4966828;28;20881;-65
2024/03/23 09:12:01;;;;;;;7.57;2.97;;;8.80;99.90;;;;;;4982542;28;20573;-65
2024/03/23 09:14:27;;;;;;;7.50;2.80;;;9.00;99.90;;;;;;4964980;28;20478;-65
2024/03/23 09:16:55;;;;;;;8.43;3.30;;;9.10;99.90;;;;;;4963169;28;20963;-65
2024/03/23 09:19:21;;;;;;;10.37;3.47;;;9.10;99.90;;;;;;4964567;28;20486;-65
2024/03/23 09:21:50;;;;;;;6.90;2.60;;;9.10;99.90;;;;;;4965856;28;20497;-65
2024/03/23 09:24:16;;;;;;;9.67;3.23;;;9.10;99.90;;;;;;4981269;28;20487;-66
2024/03/23 09:26:43;;;;;;;11.07;2.93;;;9.10;99.90;;;;;;4963707;28;20475;-66
2024/03/23 09:29:09;;;;;;;8.40;2.83;;;9.10;99.90;;;;;;4960295;28;20843;-65
2024/03/23 09:31:38;;;;;;;7.20;2.43;;;9.10;99.90;;;;;;4964441;28;20489;-65
2024/03/23 09:34:05;;;;;;;6.57;2.40;;;9.10;99.90;;;;;;4964706;28;20987;-65
2024/03/23 09:36:33;;;;;;;6.37;2.57;;;9.10;99.90;;;;;;4980255;28;20474;-65
2024/03/23 09:38:59;;;;;;;10.93;3.57;;;9.20;99.90;;;;;;4964672;28;20474;-65
2024/03/23 09:41:26;;;;;;;9.30;2.87;;;9.20;99.90;;;;;;4977131;28;20489;-65
2024/03/23 09:43:53;;;;;;;4.43;2.50;;;9.30;99.90;;;;;;4975574;28;21422;-66
2024/03/23 09:46:20;;;;;;;4.53;2.60;;;9.40;99.90;;;;;;4976363;28;20474;-65
2024/03/23 09:48:47;;;;;;;4.80;1.90;;;9.40;99.90;;;;;;4980501;28;20476;-65
2024/03/23 09:51:15;;;;;;;10.67;3.00;;;9.50;99.90;;;;;;4963395;28;20470;-65
2024/03/23 09:53:41;;;;;;;9.23;2.50;;;9.50;99.90;;;;;;4958499;28;20998;-67
2024/03/23 09:56:09;;;;;;;3.43;2.03;;;9.60;99.90;;;;;;4952272;28;20475;-65
2024/03/23 09:58:36;;;;;;;6.67;2.10;;;9.50;99.90;;;;;;4958538;28;20461;-65
2024/03/23 10:01:04;;;;;;;5.80;2.57;;;9.50;99.90;;;;;;4963920;28;20485;-64
2024/03/23 10:03:30;;;;;;;4.20;2.33;;;9.50;99.90;;;;;;4964137;28;20493;-67
2024/03/23 10:06:02;;;;;;;7.47;2.23;;;9.50;99.90;;;;;;4967557;28;20498;-67
2024/03/23 10:08:33;;;;;;;6.30;2.63;;;9.50;99.90;;;;;;4969704;28;20477;-66
2024/03/23 10:11:13;;;;;;;9.80;2.80;;;9.40;99.90;;;;;;4970565;28;20477;-67
2024/03/23 10:13:42;;;;;;;8.77;2.80;;;9.30;99.90;;;;;;4978623;28;20601;-67
2024/03/23 10:16:09;;;;;;;7.23;3.00;;;9.30;99.90;;;;;;4973138;28;20469;-68
2024/03/23 10:18:39;;;;;;;7.67;2.60;;;9.30;99.90;;;;;;4979853;28;20481;-67
2024/03/23 10:21:10;;;;;;;7.27;3.50;;;9.30;99.90;;;;;;4973292;28;20548;-68
2024/03/23 10:23:39;;;;;;;5.03;2.77;;;9.40;99.90;;;;;;4976178;28;20473;-67
2024/03/23 10:26:17;;;;;;;9.70;2.50;;;9.50;99.90;;;;;;4978608;28;20540;-68
2024/03/23 10:28:56;;;;;;;7.37;2.83;;;9.60;99.90;;;;;;4978240;28;20471;-67
2024/03/23 10:31:23;;;;;;;10.03;2.90;;;9.70;99.90;;;;;;4995499;28;20489;-67
2024/03/23 10:33:50;;;;;;;5.67;2.80;;;9.80;99.90;;;;;;4970746;28;20543;-68
2024/03/23 10:36:18;;;;;;;7.40;2.50;;;9.80;99.90;;;;;;4971250;28;21247;-68
2024/03/23 10:38:46;;;;;;;11.47;3.87;;;9.80;99.90;;;;;;4970492;28;20477;-69
2024/03/23 10:41:13;;;;;;;4.80;2.27;;;9.80;99.90;;;;;;4973899;28;20481;-70
2024/03/23 10:43:40;;;;;;;7.60;1.83;;;9.70;99.90;;;;;;4979422;28;20477;-69
2024/03/23 10:46:07;;;;;;;6.17;2.20;;;9.70;99.90;;;;;;4978976;28;20480;-70
2024/03/23 10:48:33;;;;;;;3.97;2.00;;;9.60;99.90;;;;;;4975882;28;20487;-68
2024/03/23 10:51:01;;;;;;;5.90;2.20;;;9.50;99.90;;;;;;4977280;28;20489;-68
2024/03/23 10:53:28;;;;;;;6.20;2.27;;;9.50;99.90;;;;;;4977321;28;20485;-68
2024/03/23 10:55:57;;;;;;;5.30;2.30;;;9.60;99.90;;;;;;4979468;28;20484;-69
2024/03/23 10:58:28;;;;;;;4.87;2.37;;;9.70;99.90;;;;;;4980428;28;20532;-69
2024/03/23 11:00:55;;;;;;;6.40;2.03;;;9.90;99.90;;;;;;4968271;28;20907;-68
2024/03/23 11:03:36;;;;;;;6.27;1.80;;;10.00;99.90;;;;;;4956393;28;20548;-71
2024/03/23 11:06:04;;;;;;;3.07;1.50;;;10.10;99.90;;;;;;4958932;28;20497;-71
2024/03/23 11:08:31;;;;;;;4.30;1.50;;;10.20;99.90;;;;;;4962959;28;20478;-70
2024/03/23 11:13:53;;;;;;;3.73;1.67;;;10.30;99.90;;;;;;5084418;27;20604;-70
2024/03/23 11:16:23;;;;;;;3.80;1.70;;;10.60;99.90;;;;;;5072596;28;20457;-68
2024/03/23 11:18:51;;;;;;;7.80;1.70;;;10.70;99.90;;;;;;5075040;28;20606;-67
2024/03/23 11:21:53;;;;;;;5.70;1.90;;;10.90;99.90;;;;;;5053478;28;20474;-68
2024/03/23 11:24:21;;;;;;;5.87;1.80;;;11.10;99.90;;;;;;5027437;28;20454;-68
2024/03/23 11:26:48;;;;;;;4.60;2.07;;;11.30;99.90;;;;;;5045173;28;20462;-68
2024/03/23 11:29:18;;;;;;;4.07;1.83;;;11.50;99.90;;;;;;5048866;28;20474;-68
2024/03/23 11:31:47;;;;;;;3.23;1.63;;;11.50;99.90;;;;;;5035216;28;20490;-67
2024/03/23 11:34:17;;;;;;;5.20;1.87;;;11.50;99.90;;;;;;5038721;28;20466;-68
2024/03/23 11:36:43;;;;;;;2.17;1.70;;;11.50;99.90;;;;;;5034501;28;20463;-68
2024/03/23 11:39:15;;;;;;;3.80;1.90;;;11.50;99.90;;;;;;5035253;28;20517;-68
2024/03/23 11:41:48;;;;;;;4.50;2.10;;;11.40;99.90;;;;;;5035205;28;21238;-68
2024/03/23 11:44:18;;;;;;;5.70;2.03;;;11.40;99.90;;;;;;5036314;28;20471;-68
2024/03/23 11:46:44;;;;;;;2.70;1.70;;;11.50;99.90;;;;;;5035538;28;20532;-68
2024/03/23 11:49:23;;;;;;;5.20;2.40;;;11.50;99.90;;;;;;5038571;28;20666;-68
2024/03/23 11:51:49;;;;;;;5.73;1.93;;;11.60;99.90;;;;;;5028298;28;20724;-68
2024/03/23 11:54:16;;;;;;;6.23;1.73;;;11.70;99.90;;;;;;5030842;28;20459;-68
2024/03/23 11:56:54;;;;;;;5.77;2.37;;;11.80;99.90;;;;;;5035368;28;20470;-69
2024/03/23 11:59:33;;;;;;;5.27;2.30;;;11.80;99.90;;;;;;5032902;28;20485;-64
2024/03/23 12:01:59;;;;;;;2.77;1.43;;;11.60;99.90;;;;;;5035004;28;21006;-69
2024/03/23 12:04:27;;;;;;;3.17;0.90;;;11.40;99.90;;;;;;5038350;28;20532;-69
2024/03/23 12:07:09;;;;;;;1.70;0.80;;;11.10;99.90;;;;;;5038910;28;20485;-69
2024/03/23 12:09:36;;;;;;;1.00;0.90;;;10.60;99.90;;;;;;5037283;28;20477;-65
2024/03/23 12:12:07;;;;;;;2.77;1.00;;;10.20;99.90;;;;;;5033088;28;22064;-69
2024/03/23 12:14:36;;;;;;;1.63;0.90;;;9.90;99.90;;;;;;5035921;28;20467;-69
2024/03/23 12:17:12;;;;;;;1.73;0.80;;;9.60;99.90;;;;;;5036007;28;20475;-68
2024/03/23 12:19:39;;;;;;;2.00;1.10;;;9.30;99.90;;;;;;5034239;28;20474;-69
2024/03/23 12:22:06;;;;;;;1.93;0.93;;;9.10;99.90;;;;;;5032956;28;20556;-69
2024/03/23 12:24:35;;;;;;;3.40;1.20;;;9.00;99.90;;;;;;5018458;28;20538;-67
2024/03/23 12:27:02;;;;;;;5.73;1.30;;;9.00;99.90;;;;;;5014235;28;20479;-68
2024/03/23 12:29:31;;;;;;;2.37;1.50;;;9.00;99.90;;;;;;5019774;28;20468;-68
2024/03/23 12:31:59;;;;;;;2.67;1.53;;;9.20;99.90;;;;;;5019712;28;20517;-68
2024/03/23 12:34:27;;;;;;;1.40;1.17;;;9.50;99.90;;;;;;5020140;28;20529;-68
2024/03/23 12:36:53;;;;;;;2.30;1.17;;;9.70;99.90;;;;;;5018947;28;20863;-68
2024/03/23 12:39:20;;;;;;;2.73;1.40;;;9.80;99.90;;;;;;5019392;28;20683;-69
2024/03/23 12:41:46;;;;;;;1.87;0.90;;;9.80;99.90;;;;;;5013081;28;20495;-69
2024/03/23 12:44:15;;;;;;;1.30;0.70;;;9.70;99.90;;;;;;5016429;28;20472;-69
2024/03/23 12:46:41;;;;;;;0.60;0.60;;;9.40;99.90;;;;;;5016790;28;20830;-69
2024/03/23 12:49:09;;;;;;;1.23;0.60;;;9.20;99.90;;;;;;5016203;28;20475;-69
2024/03/23 12:51:36;;;;;;;0.90;0.40;;;8.80;99.90;;;;;;5014030;28;20498;-69
2024/03/23 12:54:03;;;;;;;0.50;0.50;;;8.60;99.90;;;;;;5010982;28;21805;-69
2024/03/23 12:56:29;;;;;;;1.10;0.70;;;8.40;99.90;;;;;;5014375;28;20503;-71